sensor_id;sensor_type;location;lat;lon;timestamp;temperature;humidity
69204;DHT22;56317;27.658;85.326;2024-02-26T00:01:19;4.50;1.00
69204;DHT22;56317;27.658;85.326;2024-02-26T00:03:47;4.40;1.00
69204;DHT22;56317;27.658;85.326;2024-02-26T00:06:14;4.30;1.00
69204;DHT22;56317;27.658;85.326;2024-02-26T00:08:41;4.30;1.00
69204;DHT22;56317;27.658;85.326;2024-02-26T00:11:08;4.20;1.00
69204;DHT22;56317;27.658;85.326;2024-02-26T00:13:36;4.20;8.20
69204;DHT22;56317;27.658;85.326;2024-02-26T00:16:04;4.10;3.30
69204;DHT22;56317;27.658;85.326;2024-02-26T00:18:33;4.10;11.10
69204;DHT22;56317;27.658;85.326;2024-02-26T00:21:00;4.10;20.90
69204;DHT22;56317;27.658;85.326;2024-02-26T00:23:27;4.20;27.50
69204;DHT22;56317;27.658;85.326;2024-02-26T00:25:54;4.20;4.00
69204;DHT22;56317;27.658;85.326;2024-02-26T00:28:22;4.20;15.20
69204;DHT22;56317;27.658;85.326;2024-02-26T00:30:51;4.10;1.00
69204;DHT22;56317;27.658;85.326;2024-02-26T00:33:22;4.20;24.30
69204;DHT22;56317;27.658;85.326;2024-02-26T00:35:49;4.30;1.00
69204;DHT22;56317;27.658;85.326;2024-02-26T00:38:17;4.30;13.70
69204;DHT22;56317;27.658;85.326;2024-02-26T00:40:44;4.20;6.30
69204;DHT22;56317;27.658;85.326;2024-02-26T00:43:11;4.30;8.20
69204;DHT22;56317;27.658;85.326;2024-02-26T00:45:38;4.40;1.00
69204;DHT22;56317;27.658;85.326;2024-02-26T00:48:06;4.40;1.00
69204;DHT22;56317;27.658;85.326;2024-02-26T00:50:36;4.50;1.00
69204;DHT22;56317;27.658;85.326;2024-02-26T00:53:03;4.60;1.00
69204;DHT22;56317;27.658;85.326;2024-02-26T00:55:30;4.60;1.00
69204;DHT22;56317;27.658;85.326;2024-02-26T00:57:58;4.50;99.90
69204;DHT22;56317;27.658;85.326;2024-02-26T01:00:25;4.50;1.00
69204;DHT22;56317;27.658;85.326;2024-02-26T01:02:52;4.50;1.00
69204;DHT22;56317;27.658;85.326;2024-02-26T01:05:19;4.60;1.00
69204;DHT22;56317;27.658;85.326;2024-02-26T01:07:46;4.80;1.00
69204;DHT22;56317;27.658;85.326;2024-02-26T01:10:13;5.00;1.00
69204;DHT22;56317;27.658;85.326;2024-02-26T01:12:40;5.20;1.00
69204;DHT22;56317;27.658;85.326;2024-02-26T01:15:08;5.40;99.90
69204;DHT22;56317;27.658;85.326;2024-02-26T01:17:35;5.60;99.90
69204;DHT22;56317;27.658;85.326;2024-02-26T01:20:03;5.60;99.90
69204;DHT22;56317;27.658;85.326;2024-02-26T01:22:31;5.80;99.90
69204;DHT22;56317;27.658;85.326;2024-02-26T01:24:58;5.80;99.90
69204;DHT22;56317;27.658;85.326;2024-02-26T01:27:25;5.80;1.00
69204;DHT22;56317;27.658;85.326;2024-02-26T01:29:53;5.90;18.60
69204;DHT22;56317;27.658;85.326;2024-02-26T01:32:21;6.00;99.90
69204;DHT22;56317;27.658;85.326;2024-02-26T01:34:48;6.00;1.00
69204;DHT22;56317;27.658;85.326;2024-02-26T01:37:15;6.00;1.00
69204;DHT22;56317;27.658;85.326;2024-02-26T01:39:42;6.10;1.00
69204;DHT22;56317;27.658;85.326;2024-02-26T01:42:09;6.10;1.00
69204;DHT22;56317;27.658;85.326;2024-02-26T01:44:37;6.10;1.00
69204;DHT22;56317;27.658;85.326;2024-02-26T01:47:07;6.10;99.90
69204;DHT22;56317;27.658;85.326;2024-02-26T01:49:37;6.10;1.00
69204;DHT22;56317;27.658;85.326;2024-02-26T01:52:08;6.00;1.00
69204;DHT22;56317;27.658;85.326;2024-02-26T01:54:38;6.10;1.00
69204;DHT22;56317;27.658;85.326;2024-02-26T01:57:06;6.30;1.00
69204;DHT22;56317;27.658;85.326;2024-02-26T01:59:35;6.60;1.00
69204;DHT22;56317;27.658;85.326;2024-02-26T02:02:05;7.00;1.00
69204;DHT22;56317;27.658;85.326;2024-02-26T02:04:33;7.40;99.90
69204;DHT22;56317;27.658;85.326;2024-02-26T02:07:02;8.00;1.00
69204;DHT22;56317;27.658;85.326;2024-02-26T02:09:29;8.50;72.10
69204;DHT22;56317;27.658;85.326;2024-02-26T02:11:56;8.90;1.00
69204;DHT22;56317;27.658;85.326;2024-02-26T02:14:24;9.30;99.90
69204;DHT22;56317;27.658;85.326;2024-02-26T02:16:53;9.50;99.90
69204;DHT22;56317;27.658;85.326;2024-02-26T02:19:20;9.70;99.90
69204;DHT22;56317;27.658;85.326;2024-02-26T02:21:47;9.70;1.00
69204;DHT22;56317;27.658;85.326;2024-02-26T02:24:14;9.80;1.00
69204;DHT22;56317;27.658;85.326;2024-02-26T02:26:41;9.90;1.00
69204;DHT22;56317;27.658;85.326;2024-02-26T02:29:08;9.90;1.00
69204;DHT22;56317;27.658;85.326;2024-02-26T02:31:36;9.90;99.90
69204;DHT22;56317;27.658;85.326;2024-02-26T02:34:03;10.00;99.90
69204;DHT22;56317;27.658;85.326;2024-02-26T02:36:30;10.00;99.90
69204;DHT22;56317;27.658;85.326;2024-02-26T02:38:57;10.20;99.90
69204;DHT22;56317;27.658;85.326;2024-02-26T02:41:24;10.50;99.90
69204;DHT22;56317;27.658;85.326;2024-02-26T02:43:53;10.80;99.90
69204;DHT22;56317;27.658;85.326;2024-02-26T02:46:20;11.20;99.90
69204;DHT22;56317;27.658;85.326;2024-02-26T02:48:48;11.80;99.90
69204;DHT22;56317;27.658;85.326;2024-02-26T02:51:15;12.00;99.90
69204;DHT22;56317;27.658;85.326;2024-02-26T02:53:45;12.30;99.90
69204;DHT22;56317;27.658;85.326;2024-02-26T02:56:15;12.60;99.90
69204;DHT22;56317;27.658;85.326;2024-02-26T02:58:42;12.90;1.00
69204;DHT22;56317;27.658;85.326;2024-02-26T03:01:09;13.20;1.00
69204;DHT22;56317;27.658;85.326;2024-02-26T03:03:37;13.30;1.00
69204;DHT22;56317;27.658;85.326;2024-02-26T03:06:04;13.40;1.00
69204;DHT22;56317;27.658;85.326;2024-02-26T03:08:31;13.30;1.00
69204;DHT22;56317;27.658;85.326;2024-02-26T03:11:01;13.50;1.00
69204;DHT22;56317;27.658;85.326;2024-02-26T03:13:28;13.80;1.00
69204;DHT22;56317;27.658;85.326;2024-02-26T03:15:56;13.80;1.00
69204;DHT22;56317;27.658;85.326;2024-02-26T03:18:23;13.80;1.00
69204;DHT22;56317;27.658;85.326;2024-02-26T03:20:51;13.80;1.00
69204;DHT22;56317;27.658;85.326;2024-02-26T03:23:18;14.10;1.00
69204;DHT22;56317;27.658;85.326;2024-02-26T03:25:47;14.40;1.00
69204;DHT22;56317;27.658;85.326;2024-02-26T03:28:14;14.40;1.00
69204;DHT22;56317;27.658;85.326;2024-02-26T03:30:42;14.50;1.00
69204;DHT22;56317;27.658;85.326;2024-02-26T03:33:10;14.60;1.00
69204;DHT22;56317;27.658;85.326;2024-02-26T03:35:37;14.60;1.00
69204;DHT22;56317;27.658;85.326;2024-02-26T03:38:04;14.90;1.00
69204;DHT22;56317;27.658;85.326;2024-02-26T03:40:31;15.10;99.90
69204;DHT22;56317;27.658;85.326;2024-02-26T03:42:59;15.40;99.90
69204;DHT22;56317;27.658;85.326;2024-02-26T03:45:26;15.40;99.90
69204;DHT22;56317;27.658;85.326;2024-02-26T03:47:54;15.30;99.90
69204;DHT22;56317;27.658;85.326;2024-02-26T03:50:21;15.90;99.90
69204;DHT22;56317;27.658;85.326;2024-02-26T03:52:48;16.10;99.90
69204;DHT22;56317;27.658;85.326;2024-02-26T03:55:16;16.40;99.90
69204;DHT22;56317;27.658;85.326;2024-02-26T03:57:47;16.60;99.90
69204;DHT22;56317;27.658;85.326;2024-02-26T04:00:15;16.60;99.90
69204;DHT22;56317;27.658;85.326;2024-02-26T04:02:49;16.70;99.90
69204;DHT22;56317;27.658;85.326;2024-02-26T04:05:18;17.10;99.90
69204;DHT22;56317;27.658;85.326;2024-02-26T04:07:45;17.60;99.90
69204;DHT22;56317;27.658;85.326;2024-02-26T04:10:12;17.90;99.90
69204;DHT22;56317;27.658;85.326;2024-02-26T04:12:41;18.60;99.90
69204;DHT22;56317;27.658;85.326;2024-02-26T04:15:09;18.90;99.90
69204;DHT22;56317;27.658;85.326;2024-02-26T04:17:37;18.70;99.90
69204;DHT22;56317;27.658;85.326;2024-02-26T04:20:05;19.00;99.90
69204;DHT22;56317;27.658;85.326;2024-02-26T04:22:33;18.90;99.90
69204;DHT22;56317;27.658;85.326;2024-02-26T04:25:00;18.90;99.90
69204;DHT22;56317;27.658;85.326;2024-02-26T04:27:27;19.30;99.90
69204;DHT22;56317;27.658;85.326;2024-02-26T04:29:55;19.70;99.90
69204;DHT22;56317;27.658;85.326;2024-02-26T04:32:22;19.40;99.90
69204;DHT22;56317;27.658;85.326;2024-02-26T04:34:49;18.50;99.90
69204;DHT22;56317;27.658;85.326;2024-02-26T04:37:16;18.40;99.90
69204;DHT22;56317;27.658;85.326;2024-02-26T04:39:43;19.40;99.90
69204;DHT22;56317;27.658;85.326;2024-02-26T04:42:10;20.40;99.90
69204;DHT22;56317;27.658;85.326;2024-02-26T04:44:38;20.60;99.90
69204;DHT22;56317;27.658;85.326;2024-02-26T04:47:05;21.30;99.90
69204;DHT22;56317;27.658;85.326;2024-02-26T04:49:34;21.50;99.90
69204;DHT22;56317;27.658;85.326;2024-02-26T04:52:01;24.60;99.90
69204;DHT22;56317;27.658;85.326;2024-02-26T04:54:29;28.80;99.90
69204;DHT22;56317;27.658;85.326;2024-02-26T04:56:57;32.00;99.90
69204;DHT22;56317;27.658;85.326;2024-02-26T04:59:26;32.70;99.90
69204;DHT22;56317;27.658;85.326;2024-02-26T05:01:53;32.30;99.90
69204;DHT22;56317;27.658;85.326;2024-02-26T05:04:20;34.20;99.90
69204;DHT22;56317;27.658;85.326;2024-02-26T05:06:47;36.10;99.90
69204;DHT22;56317;27.658;85.326;2024-02-26T05:09:15;38.10;99.90
69204;DHT22;56317;27.658;85.326;2024-02-26T05:12:00;38.50;99.90
69204;DHT22;56317;27.658;85.326;2024-02-26T05:14:27;39.80;99.90
69204;DHT22;56317;27.658;85.326;2024-02-26T05:16:54;41.10;99.90
69204;DHT22;56317;27.658;85.326;2024-02-26T05:19:22;41.20;99.90
69204;DHT22;56317;27.658;85.326;2024-02-26T05:21:49;41.00;99.90
69204;DHT22;56317;27.658;85.326;2024-02-26T05:24:17;41.30;99.90
69204;DHT22;56317;27.658;85.326;2024-02-26T05:26:45;41.50;99.90
69204;DHT22;56317;27.658;85.326;2024-02-26T05:29:13;41.10;99.90
69204;DHT22;56317;27.658;85.326;2024-02-26T05:31:43;42.20;99.90
69204;DHT22;56317;27.658;85.326;2024-02-26T05:34:14;43.90;99.90
69204;DHT22;56317;27.658;85.326;2024-02-26T05:36:41;45.20;99.90
69204;DHT22;56317;27.658;85.326;2024-02-26T05:39:08;46.20;99.90
69204;DHT22;56317;27.658;85.326;2024-02-26T05:41:38;46.70;99.90
69204;DHT22;56317;27.658;85.326;2024-02-26T05:44:05;44.90;99.90
69204;DHT22;56317;27.658;85.326;2024-02-26T05:46:39;42.90;99.90
69204;DHT22;56317;27.658;85.326;2024-02-26T05:49:06;42.60;99.90
69204;DHT22;56317;27.658;85.326;2024-02-26T05:51:33;44.80;99.90
69204;DHT22;56317;27.658;85.326;2024-02-26T05:54:00;43.90;99.90
69204;DHT22;56317;27.658;85.326;2024-02-26T05:56:31;43.20;99.90
69204;DHT22;56317;27.658;85.326;2024-02-26T05:58:58;43.00;99.90
69204;DHT22;56317;27.658;85.326;2024-02-26T06:01:25;45.20;99.90
69204;DHT22;56317;27.658;85.326;2024-02-26T06:03:53;46.50;99.90
69204;DHT22;56317;27.658;85.326;2024-02-26T06:06:23;45.30;99.90
69204;DHT22;56317;27.658;85.326;2024-02-26T06:08:54;47.90;99.90
69204;DHT22;56317;27.658;85.326;2024-02-26T06:11:21;49.50;99.90
69204;DHT22;56317;27.658;85.326;2024-02-26T06:13:49;49.20;99.90
69204;DHT22;56317;27.658;85.326;2024-02-26T06:16:16;46.90;99.90
69204;DHT22;56317;27.658;85.326;2024-02-26T06:18:43;44.60;99.90
69204;DHT22;56317;27.658;85.326;2024-02-26T06:21:11;45.30;99.90
69204;DHT22;56317;27.658;85.326;2024-02-26T06:23:42;45.30;99.90
69204;DHT22;56317;27.658;85.326;2024-02-26T06:26:09;43.10;99.90
69204;DHT22;56317;27.658;85.326;2024-02-26T06:28:36;40.40;99.90
69204;DHT22;56317;27.658;85.326;2024-02-26T06:31:07;42.30;99.90
69204;DHT22;56317;27.658;85.326;2024-02-26T06:33:34;42.00;99.90
69204;DHT22;56317;27.658;85.326;2024-02-26T06:36:05;41.90;99.90
69204;DHT22;56317;27.658;85.326;2024-02-26T06:38:41;40.00;99.90
69204;DHT22;56317;27.658;85.326;2024-02-26T06:41:08;41.00;99.90
69204;DHT22;56317;27.658;85.326;2024-02-26T06:43:36;40.30;99.90
69204;DHT22;56317;27.658;85.326;2024-02-26T06:46:03;40.20;99.90
69204;DHT22;56317;27.658;85.326;2024-02-26T06:48:30;38.20;99.90
69204;DHT22;56317;27.658;85.326;2024-02-26T06:50:57;37.70;99.90
69204;DHT22;56317;27.658;85.326;2024-02-26T06:53:24;38.80;99.90
69204;DHT22;56317;27.658;85.326;2024-02-26T06:55:52;40.30;99.90
69204;DHT22;56317;27.658;85.326;2024-02-26T06:58:19;39.50;99.90
69204;DHT22;56317;27.658;85.326;2024-02-26T07:00:46;38.40;99.90
69204;DHT22;56317;27.658;85.326;2024-02-26T07:03:14;36.40;99.90
69204;DHT22;56317;27.658;85.326;2024-02-26T07:05:41;33.30;99.90
69204;DHT22;56317;27.658;85.326;2024-02-26T07:08:10;32.80;99.90
69204;DHT22;56317;27.658;85.326;2024-02-26T07:10:38;32.30;99.90
69204;DHT22;56317;27.658;85.326;2024-02-26T07:13:08;33.40;99.90
69204;DHT22;56317;27.658;85.326;2024-02-26T07:15:36;32.70;99.90
69204;DHT22;56317;27.658;85.326;2024-02-26T07:18:03;32.80;99.90
69204;DHT22;56317;27.658;85.326;2024-02-26T07:20:31;31.80;99.90
69204;DHT22;56317;27.658;85.326;2024-02-26T07:22:58;31.20;99.90
69204;DHT22;56317;27.658;85.326;2024-02-26T07:25:26;33.00;99.90
69204;DHT22;56317;27.658;85.326;2024-02-26T07:27:53;33.00;99.90
69204;DHT22;56317;27.658;85.326;2024-02-26T07:30:21;31.50;99.90
69204;DHT22;56317;27.658;85.326;2024-02-26T07:32:48;31.80;99.90
69204;DHT22;56317;27.658;85.326;2024-02-26T07:35:15;31.40;99.90
69204;DHT22;56317;27.658;85.326;2024-02-26T07:37:44;31.20;99.90
69204;DHT22;56317;27.658;85.326;2024-02-26T07:40:11;31.70;99.90
69204;DHT22;56317;27.658;85.326;2024-02-26T07:42:38;31.80;99.90
69204;DHT22;56317;27.658;85.326;2024-02-26T07:45:06;32.70;99.90
69204;DHT22;56317;27.658;85.326;2024-02-26T07:47:33;29.80;99.90
69204;DHT22;56317;27.658;85.326;2024-02-26T07:50:02;29.60;99.90
69204;DHT22;56317;27.658;85.326;2024-02-26T07:52:30;29.90;99.90
69204;DHT22;56317;27.658;85.326;2024-02-26T07:55:01;30.10;99.90
69204;DHT22;56317;27.658;85.326;2024-02-26T07:57:37;30.10;99.90
69204;DHT22;56317;27.658;85.326;2024-02-26T08:00:05;29.20;99.90
69204;DHT22;56317;27.658;85.326;2024-02-26T08:02:36;28.40;99.90
69204;DHT22;56317;27.658;85.326;2024-02-26T08:05:10;28.90;99.90
69204;DHT22;56317;27.658;85.326;2024-02-26T08:07:37;31.00;99.90
69204;DHT22;56317;27.658;85.326;2024-02-26T08:10:04;31.10;99.90
69204;DHT22;56317;27.658;85.326;2024-02-26T08:12:32;31.50;99.90
69204;DHT22;56317;27.658;85.326;2024-02-26T08:14:59;31.90;99.90
69204;DHT22;56317;27.658;85.326;2024-02-26T08:17:27;31.10;99.90
69204;DHT22;56317;27.658;85.326;2024-02-26T08:19:55;30.90;99.90
69204;DHT22;56317;27.658;85.326;2024-02-26T08:22:23;31.10;99.90
69204;DHT22;56317;27.658;85.326;2024-02-26T08:24:50;30.10;99.90
69204;DHT22;56317;27.658;85.326;2024-02-26T08:27:18;29.90;99.90
69204;DHT22;56317;27.658;85.326;2024-02-26T08:29:45;29.00;99.90
69204;DHT22;56317;27.658;85.326;2024-02-26T08:32:12;26.90;99.90
69204;DHT22;56317;27.658;85.326;2024-02-26T08:34:39;28.10;99.90
69204;DHT22;56317;27.658;85.326;2024-02-26T08:37:07;28.70;99.90
69204;DHT22;56317;27.658;85.326;2024-02-26T08:39:34;27.30;99.90
69204;DHT22;56317;27.658;85.326;2024-02-26T08:42:01;27.20;99.90
69204;DHT22;56317;27.658;85.326;2024-02-26T08:44:28;28.40;99.90
69204;DHT22;56317;27.658;85.326;2024-02-26T08:46:56;28.00;99.90
69204;DHT22;56317;27.658;85.326;2024-02-26T08:49:23;28.60;99.90
69204;DHT22;56317;27.658;85.326;2024-02-26T08:51:50;28.50;99.90
69204;DHT22;56317;27.658;85.326;2024-02-26T08:54:17;29.20;99.90
69204;DHT22;56317;27.658;85.326;2024-02-26T08:56:47;29.50;99.90
69204;DHT22;56317;27.658;85.326;2024-02-26T08:59:15;28.80;99.90
69204;DHT22;56317;27.658;85.326;2024-02-26T09:01:42;28.20;99.90
69204;DHT22;56317;27.658;85.326;2024-02-26T09:04:10;29.20;99.90
69204;DHT22;56317;27.658;85.326;2024-02-26T09:06:37;30.20;99.90
69204;DHT22;56317;27.658;85.326;2024-02-26T09:09:04;30.20;99.90
69204;DHT22;56317;27.658;85.326;2024-02-26T09:11:31;31.00;99.90
69204;DHT22;56317;27.658;85.326;2024-02-26T09:14:01;30.70;99.90
69204;DHT22;56317;27.658;85.326;2024-02-26T09:16:30;31.50;99.90
69204;DHT22;56317;27.658;85.326;2024-02-26T09:18:58;33.00;99.90
69204;DHT22;56317;27.658;85.326;2024-02-26T09:21:25;35.20;99.90
69204;DHT22;56317;27.658;85.326;2024-02-26T09:23:53;35.50;99.90
69204;DHT22;56317;27.658;85.326;2024-02-26T09:26:20;34.40;99.90
69204;DHT22;56317;27.658;85.326;2024-02-26T09:28:48;35.60;99.90
69204;DHT22;56317;27.658;85.326;2024-02-26T09:31:17;34.20;99.90
69204;DHT22;56317;27.658;85.326;2024-02-26T09:33:44;35.00;99.90
69204;DHT22;56317;27.658;85.326;2024-02-26T09:36:12;36.40;99.90
69204;DHT22;56317;27.658;85.326;2024-02-26T09:38:40;37.60;99.90
69204;DHT22;56317;27.658;85.326;2024-02-26T09:41:09;38.40;99.90
69204;DHT22;56317;27.658;85.326;2024-02-26T09:43:43;38.80;99.90
69204;DHT22;56317;27.658;85.326;2024-02-26T09:46:11;40.40;99.90
69204;DHT22;56317;27.658;85.326;2024-02-26T09:48:42;39.60;99.90
69204;DHT22;56317;27.658;85.326;2024-02-26T09:51:11;40.90;99.90
69204;DHT22;56317;27.658;85.326;2024-02-26T09:53:43;41.60;99.90
69204;DHT22;56317;27.658;85.326;2024-02-26T09:56:11;40.10;99.90
69204;DHT22;56317;27.658;85.326;2024-02-26T09:58:44;39.00;99.90
69204;DHT22;56317;27.658;85.326;2024-02-26T10:01:22;38.50;99.90
69204;DHT22;56317;27.658;85.326;2024-02-26T10:03:58;37.00;99.90
69204;DHT22;56317;27.658;85.326;2024-02-26T10:06:29;36.20;99.90
69204;DHT22;56317;27.658;85.326;2024-02-26T10:09:06;36.70;99.90
69204;DHT22;56317;27.658;85.326;2024-02-26T10:11:37;34.20;99.90
69204;DHT22;56317;27.658;85.326;2024-02-26T10:14:11;34.10;99.90
69204;DHT22;56317;27.658;85.326;2024-02-26T10:16:38;33.40;99.90
69204;DHT22;56317;27.658;85.326;2024-02-26T10:19:06;32.90;99.90
69204;DHT22;56317;27.658;85.326;2024-02-26T10:21:33;33.80;99.90
69204;DHT22;56317;27.658;85.326;2024-02-26T10:24:00;34.60;99.90
69204;DHT22;56317;27.658;85.326;2024-02-26T10:26:29;34.70;99.90
69204;DHT22;56317;27.658;85.326;2024-02-26T10:29:00;34.80;99.90
69204;DHT22;56317;27.658;85.326;2024-02-26T10:31:27;34.00;99.90
69204;DHT22;56317;27.658;85.326;2024-02-26T10:33:56;34.40;99.90
69204;DHT22;56317;27.658;85.326;2024-02-26T10:36:26;33.60;99.90
69204;DHT22;56317;27.658;85.326;2024-02-26T10:38:55;32.30;99.90
69204;DHT22;56317;27.658;85.326;2024-02-26T10:41:23;31.80;99.90
69204;DHT22;56317;27.658;85.326;2024-02-26T10:43:50;31.30;99.90
69204;DHT22;56317;27.658;85.326;2024-02-26T10:46:19;32.10;99.90
69204;DHT22;56317;27.658;85.326;2024-02-26T10:48:53;31.00;99.90
69204;DHT22;56317;27.658;85.326;2024-02-26T10:51:29;31.40;99.90
69204;DHT22;56317;27.658;85.326;2024-02-26T10:53:57;31.60;99.90
69204;DHT22;56317;27.658;85.326;2024-02-26T10:56:28;30.40;99.90
69204;DHT22;56317;27.658;85.326;2024-02-26T10:58:58;28.30;99.90
69204;DHT22;56317;27.658;85.326;2024-02-26T11:01:27;26.50;99.90
69204;DHT22;56317;27.658;85.326;2024-02-26T11:03:58;25.00;99.90
69204;DHT22;56317;27.658;85.326;2024-02-26T11:06:29;24.40;99.90
69204;DHT22;56317;27.658;85.326;2024-02-26T11:09:00;24.00;99.90
69204;DHT22;56317;27.658;85.326;2024-02-26T11:11:29;23.60;99.90
69204;DHT22;56317;27.658;85.326;2024-02-26T11:13:56;23.30;99.90
69204;DHT22;56317;27.658;85.326;2024-02-26T11:16:26;22.70;99.90
69204;DHT22;56317;27.658;85.326;2024-02-26T11:18:55;22.40;99.90
69204;DHT22;56317;27.658;85.326;2024-02-26T11:21:24;21.80;99.90
69204;DHT22;56317;27.658;85.326;2024-02-26T11:24:09;21.20;99.90
69204;DHT22;56317;27.658;85.326;2024-02-26T11:38:27;19.50;99.90
69204;DHT22;56317;27.658;85.326;2024-02-26T11:40:56;17.50;99.90
69204;DHT22;56317;27.658;85.326;2024-02-26T11:43:53;17.20;99.90
69204;DHT22;56317;27.658;85.326;2024-02-26T11:46:52;17.00;99.90
69204;DHT22;56317;27.658;85.326;2024-02-26T11:49:30;16.80;99.90
69204;DHT22;56317;27.658;85.326;2024-02-26T11:51:58;16.70;99.90
69204;DHT22;56317;27.658;85.326;2024-02-26T11:54:49;16.40;99.90
69204;DHT22;56317;27.658;85.326;2024-02-26T11:57:37;16.10;99.90
69204;DHT22;56317;27.658;85.326;2024-02-26T12:00:13;16.00;99.90
69204;DHT22;56317;27.658;85.326;2024-02-26T12:02:47;15.80;99.90
69204;DHT22;56317;27.658;85.326;2024-02-26T12:05:21;15.60;99.90
69204;DHT22;56317;27.658;85.326;2024-02-26T12:08:05;15.50;99.90
69204;DHT22;56317;27.658;85.326;2024-02-26T12:10:36;15.30;99.90
69204;DHT22;56317;27.658;85.326;2024-02-26T12:13:15;15.30;99.90
69204;DHT22;56317;27.658;85.326;2024-02-26T12:15:44;15.10;99.90
69204;DHT22;56317;27.658;85.326;2024-02-26T12:18:17;15.00;99.90
69204;DHT22;56317;27.658;85.326;2024-02-26T12:20:45;14.80;99.90
69204;DHT22;56317;27.658;85.326;2024-02-26T12:23:16;14.70;99.90
69204;DHT22;56317;27.658;85.326;2024-02-26T12:25:44;14.70;99.90
69204;DHT22;56317;27.658;85.326;2024-02-26T12:28:15;14.70;99.90
69204;DHT22;56317;27.658;85.326;2024-02-26T12:30:42;14.60;99.90
69204;DHT22;56317;27.658;85.326;2024-02-26T12:33:09;14.50;99.90
69204;DHT22;56317;27.658;85.326;2024-02-26T12:35:37;14.50;99.90
69204;DHT22;56317;27.658;85.326;2024-02-26T12:38:04;14.50;99.90
69204;DHT22;56317;27.658;85.326;2024-02-26T12:40:32;14.40;99.90
69204;DHT22;56317;27.658;85.326;2024-02-26T12:42:59;14.40;99.90
69204;DHT22;56317;27.658;85.326;2024-02-26T12:45:26;14.30;99.90
69204;DHT22;56317;27.658;85.326;2024-02-26T12:47:54;14.20;99.90
69204;DHT22;56317;27.658;85.326;2024-02-26T12:50:23;14.20;99.90
69204;DHT22;56317;27.658;85.326;2024-02-26T12:52:51;14.20;99.90
69204;DHT22;56317;27.658;85.326;2024-02-26T12:55:21;14.20;99.90
69204;DHT22;56317;27.658;85.326;2024-02-26T12:57:49;14.10;99.90
69204;DHT22;56317;27.658;85.326;2024-02-26T13:00:26;14.10;99.90
69204;DHT22;56317;27.658;85.326;2024-02-26T13:02:55;14.10;99.90
69204;DHT22;56317;27.658;85.326;2024-02-26T13:05:23;14.00;99.90
69204;DHT22;56317;27.658;85.326;2024-02-26T13:07:51;14.00;99.90
69204;DHT22;56317;27.658;85.326;2024-02-26T13:10:19;13.90;99.90
69204;DHT22;56317;27.658;85.326;2024-02-26T13:12:50;14.00;99.90
69204;DHT22;56317;27.658;85.326;2024-02-26T13:15:21;14.00;99.90
69204;DHT22;56317;27.658;85.326;2024-02-26T13:17:49;14.00;99.90
69204;DHT22;56317;27.658;85.326;2024-02-26T13:20:27;14.00;99.90
69204;DHT22;56317;27.658;85.326;2024-02-26T13:23:05;13.90;99.90
69204;DHT22;56317;27.658;85.326;2024-02-26T13:25:36;13.90;99.90
69204;DHT22;56317;27.658;85.326;2024-02-26T13:28:16;13.90;99.90
69204;DHT22;56317;27.658;85.326;2024-02-26T13:30:56;13.80;99.90
69204;DHT22;56317;27.658;85.326;2024-02-26T13:33:25;13.80;99.90
69204;DHT22;56317;27.658;85.326;2024-02-26T13:35:53;13.70;99.90
69204;DHT22;56317;27.658;85.326;2024-02-26T13:38:20;13.70;99.90
69204;DHT22;56317;27.658;85.326;2024-02-26T13:40:47;13.70;99.90
69204;DHT22;56317;27.658;85.326;2024-02-26T13:43:15;13.80;99.90
69204;DHT22;56317;27.658;85.326;2024-02-26T13:45:42;13.80;99.90
69204;DHT22;56317;27.658;85.326;2024-02-26T13:48:11;13.80;99.90
69204;DHT22;56317;27.658;85.326;2024-02-26T13:50:42;13.80;99.90
69204;DHT22;56317;27.658;85.326;2024-02-26T13:53:12;13.90;99.90
69204;DHT22;56317;27.658;85.326;2024-02-26T13:55:41;13.90;99.90
69204;DHT22;56317;27.658;85.326;2024-02-26T13:58:14;13.90;99.90
69204;DHT22;56317;27.658;85.326;2024-02-26T14:00:42;13.80;99.90
69204;DHT22;56317;27.658;85.326;2024-02-26T14:03:09;13.70;99.90
69204;DHT22;56317;27.658;85.326;2024-02-26T14:05:36;13.70;99.90
69204;DHT22;56317;27.658;85.326;2024-02-26T14:08:03;13.60;99.90
69204;DHT22;56317;27.658;85.326;2024-02-26T14:10:31;13.60;99.90
69204;DHT22;56317;27.658;85.326;2024-02-26T14:12:59;13.60;99.90
69204;DHT22;56317;27.658;85.326;2024-02-26T14:15:27;13.50;99.90
69204;DHT22;56317;27.658;85.326;2024-02-26T14:17:55;13.50;99.90
69204;DHT22;56317;27.658;85.326;2024-02-26T14:20:25;13.50;99.90
69204;DHT22;56317;27.658;85.326;2024-02-26T14:22:53;13.50;99.90
69204;DHT22;56317;27.658;85.326;2024-02-26T14:25:21;13.50;99.90
69204;DHT22;56317;27.658;85.326;2024-02-26T14:27:49;13.40;99.90
69204;DHT22;56317;27.658;85.326;2024-02-26T14:30:16;13.50;99.90
69204;DHT22;56317;27.658;85.326;2024-02-26T14:32:43;13.40;99.90
69204;DHT22;56317;27.658;85.326;2024-02-26T14:35:10;13.40;99.90
69204;DHT22;56317;27.658;85.326;2024-02-26T14:37:38;13.40;99.90
69204;DHT22;56317;27.658;85.326;2024-02-26T14:40:05;13.40;99.90
69204;DHT22;56317;27.658;85.326;2024-02-26T14:42:34;13.40;99.90
69204;DHT22;56317;27.658;85.326;2024-02-26T14:45:01;13.30;99.90
69204;DHT22;56317;27.658;85.326;2024-02-26T14:47:29;13.40;99.90
69204;DHT22;56317;27.658;85.326;2024-02-26T14:49:56;13.30;99.90
69204;DHT22;56317;27.658;85.326;2024-02-26T14:52:23;13.30;99.90
69204;DHT22;56317;27.658;85.326;2024-02-26T14:54:50;13.30;99.90
69204;DHT22;56317;27.658;85.326;2024-02-26T14:57:18;13.30;99.90
69204;DHT22;56317;27.658;85.326;2024-02-26T14:59:45;13.30;99.90
69204;DHT22;56317;27.658;85.326;2024-02-26T15:02:12;13.20;99.90
69204;DHT22;56317;27.658;85.326;2024-02-26T15:04:39;13.20;99.90
69204;DHT22;56317;27.658;85.326;2024-02-26T15:07:06;13.20;99.90
69204;DHT22;56317;27.658;85.326;2024-02-26T15:09:33;13.20;99.90
69204;DHT22;56317;27.658;85.326;2024-02-26T15:12:01;13.20;99.90
69204;DHT22;56317;27.658;85.326;2024-02-26T15:14:29;13.10;99.90
69204;DHT22;56317;27.658;85.326;2024-02-26T15:16:56;13.00;99.90
69204;DHT22;56317;27.658;85.326;2024-02-26T15:19:23;12.80;99.90
69204;DHT22;56317;27.658;85.326;2024-02-26T15:21:56;12.70;99.90
69204;DHT22;56317;27.658;85.326;2024-02-26T15:24:34;12.50;99.90
69204;DHT22;56317;27.658;85.326;2024-02-26T15:27:01;12.40;99.90
69204;DHT22;56317;27.658;85.326;2024-02-26T15:29:33;12.30;99.90
69204;DHT22;56317;27.658;85.326;2024-02-26T15:32:02;12.20;99.90
69204;DHT22;56317;27.658;85.326;2024-02-26T15:34:31;12.10;99.90
69204;DHT22;56317;27.658;85.326;2024-02-26T15:36:58;12.10;99.90
69204;DHT22;56317;27.658;85.326;2024-02-26T15:39:30;11.90;99.90
69204;DHT22;56317;27.658;85.326;2024-02-26T15:42:00;11.90;99.90